createdAt,value
2019-03-10T00:00:34.103Z,93.70
2019-03-10T00:03:04.971Z,93.80
2019-03-10T00:05:38.976Z,93.70
2019-03-10T00:11:10.321Z,93.90
2019-03-10T00:13:52.429Z,94.10
2019-03-10T00:22:33.201Z,94.20
2019-03-10T00:25:10.327Z,94.20
2019-03-10T00:27:39.849Z,94.20
2019-03-10T00:30:16.922Z,94.40
2019-03-10T00:32:48.155Z,94.10
2019-03-10T00:35:22.791Z,94.20
2019-03-10T00:37:52.587Z,94.40
2019-03-10T00:44:04.249Z,94.20
2019-03-10T00:46:38.853Z,94.30
2019-03-10T00:49:28.203Z,94.20
2019-03-10T00:52:26.725Z,94.40
2019-03-10T00:55:00.332Z,94.60
2019-03-10T00:57:36.644Z,94.30
2019-03-10T01:00:13.018Z,94.30
2019-03-10T01:05:43.953Z,94.10
2019-03-10T01:08:19.256Z,93.90
2019-03-10T01:10:48.098Z,94.00
2019-03-10T01:16:07.790Z,94.20
2019-03-10T01:18:37.185Z,94.20
2019-03-10T01:21:05.808Z,94.20
2019-03-10T01:23:34.394Z,94.40
2019-03-10T01:26:05.713Z,94.50
2019-03-10T01:28:34.276Z,94.20
2019-03-10T01:31:05.931Z,94.40
2019-03-10T01:33:55.378Z,94.60
2019-03-10T01:36:22.861Z,94.30
2019-03-10T01:38:51.394Z,94.60
2019-03-10T01:41:19.930Z,94.90
2019-03-10T01:43:51.125Z,95.30
2019-03-10T01:46:21.165Z,95.60
2019-03-10T01:48:50.238Z,95.60
2019-03-10T01:51:23.351Z,95.70
2019-03-10T01:53:53.395Z,95.60
2019-03-10T01:56:22.263Z,95.40
2019-03-10T01:58:51.848Z,95.60
2019-03-10T02:01:25.286Z,95.80
2019-03-10T02:03:57.851Z,96.00
2019-03-10T02:06:27.989Z,96.20
2019-03-10T02:09:00.505Z,96.20
2019-03-10T02:11:29.131Z,96.30
2019-03-10T02:13:59.002Z,96.20
2019-03-10T02:16:30.517Z,96.10
2019-03-10T02:18:58.768Z,96.00
2019-03-10T02:21:27.630Z,96.20
2019-03-10T02:24:00.499Z,96.20
2019-03-10T02:26:33.096Z,95.80
2019-03-10T02:29:07.811Z,95.50
2019-03-10T02:31:41.650Z,95.10
2019-03-10T02:34:21.391Z,95.40
2019-03-10T02:36:54.167Z,95.40
2019-03-10T02:39:33.289Z,94.70
2019-03-10T02:42:07.603Z,94.30
2019-03-10T02:44:45.999Z,93.40
2019-03-10T02:47:18.309Z,91.30
2019-03-10T02:49:53.950Z,91.60
2019-03-10T02:52:32.545Z,90.60
2019-03-10T02:55:07.071Z,90.30
2019-03-10T03:00:34.538Z,87.50
2019-03-10T03:03:14.704Z,87.00
2019-03-10T03:05:48.010Z,86.60
2019-03-10T03:08:31.322Z,87.50
2019-03-10T03:11:01.960Z,88.20
2019-03-10T03:13:34.740Z,89.00
2019-03-10T03:16:08.667Z,89.80
2019-03-10T03:18:49.397Z,88.70
2019-03-10T03:21:41.554Z,86.80
2019-03-10T03:26:54.606Z,84.10
2019-03-10T03:29:24.692Z,83.00
2019-03-10T03:32:01.149Z,81.50
2019-03-10T03:34:35.791Z,81.80
2019-03-10T03:37:08.749Z,82.20
2019-03-10T03:42:29.332Z,83.50
2019-03-10T03:44:57.925Z,82.20
2019-03-10T03:47:28.146Z,83.20
2019-03-10T03:49:56.720Z,84.50
2019-03-10T03:52:26.550Z,86.40
2019-03-10T03:54:55.664Z,86.50
2019-03-10T03:57:24.242Z,84.90
2019-03-10T03:59:54.566Z,83.30
2019-03-10T04:02:58.895Z,83.30
2019-03-10T04:05:31.879Z,83.30
2019-03-10T04:08:09.503Z,84.10
2019-03-10T04:10:46.521Z,84.00
2019-03-10T04:16:18.113Z,84.80
2019-03-10T04:18:50.847Z,84.90
2019-03-10T04:21:25.950Z,85.60
2019-03-10T04:24:15.716Z,85.20
2019-03-10T04:26:50.250Z,85.50
2019-03-10T04:32:27.629Z,85.70
2019-03-10T04:35:04.427Z,85.90
2019-03-10T04:37:40.624Z,86.20
2019-03-10T04:40:34.939Z,85.90
2019-03-10T04:43:11.865Z,85.90
2019-03-10T04:46:25.410Z,86.20
2019-03-10T04:48:57.226Z,85.00
2019-03-10T04:51:37.810Z,85.50
2019-03-10T04:54:10.367Z,85.30
2019-03-10T04:56:40.539Z,85.10
2019-03-10T04:59:09.082Z,85.10
2019-03-10T05:01:37.657Z,85.30
2019-03-10T05:04:06.190Z,85.60
2019-03-10T05:06:34.769Z,85.70
2019-03-10T05:09:04.891Z,86.30
2019-03-10T05:11:33.450Z,86.30
2019-03-10T05:14:02.003Z,86.10
2019-03-10T05:16:32.091Z,86.30
2019-03-10T05:19:00.690Z,86.30
2019-03-10T05:21:29.299Z,86.50
2019-03-10T05:24:00.889Z,86.60
2019-03-10T05:26:29.474Z,86.60
2019-03-10T05:28:58.530Z,86.30
2019-03-10T05:31:27.085Z,86.50
2019-03-10T05:33:56.227Z,86.30
2019-03-10T05:36:29.123Z,86.10
2019-03-10T05:39:03.514Z,86.50
2019-03-10T05:41:33.824Z,86.20
2019-03-10T05:44:11.421Z,85.70
2019-03-10T05:46:41.707Z,85.80
2019-03-10T05:49:13.397Z,85.80
2019-03-10T05:51:43.882Z,85.40
2019-03-10T05:54:14.151Z,85.30
2019-03-10T05:56:44.275Z,84.90
2019-03-10T05:59:14.009Z,84.80
2019-03-10T06:01:47.161Z,84.70
2019-03-10T06:04:20.206Z,84.90
2019-03-10T06:06:54.477Z,84.80
2019-03-10T06:09:31.006Z,85.00
2019-03-10T06:12:05.018Z,84.60
2019-03-10T06:17:31.984Z,84.20
2019-03-10T06:20:05.463Z,84.90
2019-03-10T06:22:49.586Z,84.70
2019-03-10T06:25:21.718Z,85.40
2019-03-10T06:27:52.330Z,85.60
2019-03-10T06:30:29.463Z,85.90
2019-03-10T06:32:58.245Z,86.00
2019-03-10T06:35:28.479Z,85.90
2019-03-10T06:38:03.925Z,86.60
2019-03-10T06:40:36.357Z,87.50
2019-03-10T06:43:09.499Z,87.70
2019-03-10T06:45:45.175Z,87.20
2019-03-10T06:48:22.341Z,86.60
2019-03-10T06:50:59.319Z,87.10
2019-03-10T06:53:38.411Z,87.10
2019-03-10T06:56:09.683Z,87.90
2019-03-10T06:58:39.735Z,88.10
2019-03-10T07:01:17.219Z,87.40
2019-03-10T07:04:01.133Z,86.00
2019-03-10T07:06:45.649Z,86.30
2019-03-10T07:09:17.964Z,85.70
2019-03-10T07:11:54.671Z,84.80
2019-03-10T07:14:35.127Z,83.50
2019-03-10T07:17:08.236Z,83.50
2019-03-10T07:19:46.901Z,84.00
2019-03-10T07:22:18.500Z,83.20
2019-03-10T07:24:53.086Z,82.70
2019-03-10T07:27:29.387Z,82.50
2019-03-10T07:30:05.762Z,82.30
2019-03-10T07:32:52.379Z,82.00
2019-03-10T07:35:44.224Z,82.20
2019-03-10T07:38:20.966Z,82.60
2019-03-10T07:40:53.947Z,81.60
2019-03-10T07:43:30.549Z,81.20
2019-03-10T07:46:13.585Z,81.10
2019-03-10T07:48:54.696Z,81.30
2019-03-10T07:54:37.737Z,80.20
2019-03-10T08:00:18.509Z,79.30
2019-03-10T08:02:49.269Z,79.10
2019-03-10T08:05:31.911Z,78.50
2019-03-10T08:08:22.183Z,78.60
2019-03-10T08:11:21.383Z,77.10
2019-03-10T08:17:16.589Z,77.20
2019-03-10T08:23:08.721Z,76.70
2019-03-10T08:25:58.827Z,75.90
2019-03-10T08:28:42.281Z,76.70
2019-03-10T08:31:33.118Z,76.50
2019-03-10T08:34:06.428Z,75.60
2019-03-10T08:36:57.027Z,74.80
2019-03-10T08:39:43.046Z,73.50
2019-03-10T08:42:26.363Z,73.70
2019-03-10T08:45:12.527Z,73.90
2019-03-10T08:47:52.982Z,74.20
2019-03-10T08:50:26.302Z,73.70
2019-03-10T08:52:58.398Z,74.30
2019-03-10T08:55:34.380Z,74.80
2019-03-10T08:58:20.647Z,75.20
2019-03-10T09:00:50.865Z,75.60
2019-03-10T09:03:35.857Z,75.80
2019-03-10T09:06:08.812Z,75.20
2019-03-10T09:08:42.154Z,76.20
2019-03-10T09:11:33.907Z,77.00
2019-03-10T09:14:04.281Z,76.60
2019-03-10T09:16:34.495Z,77.20
2019-03-10T09:19:10.287Z,78.10
2019-03-10T09:21:40.447Z,77.20
2019-03-10T09:24:20.418Z,77.10
2019-03-10T09:27:07.995Z,76.90
2019-03-10T09:29:46.028Z,75.50
2019-03-10T09:32:20.037Z,75.80
2019-03-10T09:34:57.787Z,74.70
2019-03-10T09:37:33.333Z,72.90
2019-03-10T09:40:08.420Z,72.90
2019-03-10T09:42:49.342Z,73.30
2019-03-10T09:45:41.133Z,72.50
2019-03-10T09:48:15.923Z,72.80
2019-03-10T09:50:58.361Z,72.80
2019-03-10T09:53:40.466Z,71.80
2019-03-10T09:56:13.937Z,70.60
2019-03-10T09:58:44.530Z,70.80
2019-03-10T10:01:34.873Z,70.50
2019-03-10T10:04:17.758Z,70.40
2019-03-10T10:06:56.603Z,70.40
2019-03-10T10:09:32.744Z,71.30
2019-03-10T10:12:18.464Z,71.00
2019-03-10T10:15:05.204Z,71.80
2019-03-10T10:17:41.144Z,70.90
2019-03-10T10:20:15.524Z,70.70
2019-03-10T10:22:50.082Z,70.30
2019-03-10T10:25:34.384Z,70.30
2019-03-10T10:34:27.819Z,70.40
2019-03-10T10:40:11.766Z,71.40
2019-03-10T10:42:50.881Z,72.20
2019-03-10T10:45:29.638Z,72.00
2019-03-10T10:48:11.194Z,72.20
2019-03-10T10:50:44.014Z,71.80
2019-03-10T10:53:15.896Z,72.10
2019-03-10T10:55:46.338Z,70.10
2019-03-10T10:58:19.063Z,70.10
2019-03-10T11:00:56.676Z,70.10
2019-03-10T11:03:26.953Z,69.60
2019-03-10T11:06:13.637Z,69.90
2019-03-10T11:08:49.401Z,69.80
2019-03-10T11:11:34.484Z,69.20
2019-03-10T11:14:08.454Z,70.00
2019-03-10T11:16:45.726Z,69.80
2019-03-10T11:19:16.016Z,70.40
2019-03-10T11:21:46.292Z,70.10
2019-03-10T11:24:16.588Z,68.80
2019-03-10T11:26:46.838Z,68.40
2019-03-10T11:29:22.584Z,68.50
2019-03-10T11:32:03.124Z,67.90
2019-03-10T11:34:49.467Z,67.40
2019-03-10T11:37:25.838Z,67.70
2019-03-10T11:40:13.676Z,67.30
2019-03-10T11:42:50.084Z,67.00
2019-03-10T11:45:20.634Z,67.70
2019-03-10T11:48:06.904Z,66.20
2019-03-10T11:50:49.086Z,66.80
2019-03-10T11:53:19.774Z,67.70
2019-03-10T11:55:52.752Z,67.90
2019-03-10T11:58:32.091Z,67.40
2019-03-10T12:01:11.127Z,67.30
2019-03-10T12:03:43.884Z,67.30
2019-03-10T12:06:22.740Z,67.10
2019-03-10T12:09:08.744Z,67.40
2019-03-10T12:11:37.288Z,67.60
2019-03-10T12:14:07.640Z,68.30
2019-03-10T12:16:36.267Z,68.80
2019-03-10T12:19:04.780Z,69.00
2019-03-10T12:21:34.415Z,68.30
2019-03-10T12:24:03.504Z,68.20
2019-03-10T12:26:32.058Z,68.00
2019-03-10T12:29:01.177Z,67.60
2019-03-10T12:31:34.454Z,67.00
2019-03-10T12:34:13.482Z,66.20
2019-03-10T12:36:42.109Z,65.70
2019-03-10T12:39:11.480Z,65.90
2019-03-10T12:41:41.191Z,66.00
2019-03-10T12:44:11.464Z,66.50
2019-03-10T12:46:54.999Z,67.20
2019-03-10T12:49:23.596Z,66.50
2019-03-10T12:51:54.746Z,66.30
2019-03-10T12:54:23.488Z,66.10
2019-03-10T12:56:53.158Z,66.00
2019-03-10T12:59:24.320Z,65.90
2019-03-10T13:01:57.070Z,65.70
2019-03-10T13:04:27.433Z,65.40
2019-03-10T13:06:56.000Z,65.40
2019-03-10T13:09:26.707Z,65.30
2019-03-10T13:12:04.978Z,65.70
2019-03-10T13:14:37.311Z,65.50
2019-03-10T13:17:09.808Z,65.90
2019-03-10T13:19:41.055Z,66.00
2019-03-10T13:22:09.597Z,66.20
2019-03-10T13:24:39.922Z,66.10
2019-03-10T13:27:08.508Z,66.20
2019-03-10T13:29:50.029Z,66.70
2019-03-10T13:32:12.259Z,66.40
2019-03-10T13:34:44.271Z,66.20
2019-03-10T13:37:18.925Z,66.00
2019-03-10T13:39:48.076Z,64.90
2019-03-10T13:42:17.919Z,63.80
2019-03-10T13:44:48.364Z,62.80
2019-03-10T13:47:17.978Z,62.70
2019-03-10T13:49:48.066Z,62.50
2019-03-10T13:52:18.179Z,62.50
2019-03-10T13:54:46.735Z,62.80
2019-03-10T13:57:21.331Z,62.80
2019-03-10T13:59:50.015Z,62.90
2019-03-10T14:02:18.805Z,62.30
2019-03-10T14:04:47.448Z,62.80
2019-03-10T14:07:16.092Z,62.90
2019-03-10T14:09:45.602Z,62.80
2019-03-10T14:12:14.148Z,62.80
2019-03-10T14:14:43.291Z,63.10
2019-03-10T14:17:11.893Z,62.70
2019-03-10T14:19:42.217Z,61.80
2019-03-10T14:22:30.539Z,62.20
2019-03-10T14:25:04.766Z,62.50
2019-03-10T14:27:34.823Z,61.50
2019-03-10T14:30:06.016Z,61.50
2019-03-10T14:32:38.860Z,60.30
2019-03-10T14:35:09.653Z,60.20
2019-03-10T14:37:38.279Z,60.40
2019-03-10T14:40:18.219Z,59.60
2019-03-10T14:42:45.085Z,58.70
2019-03-10T14:45:18.140Z,59.00
2019-03-10T14:47:49.363Z,59.70
2019-03-10T14:50:19.292Z,59.10
2019-03-10T14:52:52.071Z,58.70
2019-03-10T14:55:43.795Z,58.80
2019-03-10T14:58:02.349Z,58.70
2019-03-10T15:00:32.465Z,58.60
2019-03-10T15:03:01.580Z,58.00
2019-03-10T15:05:31.098Z,58.20
2019-03-10T15:08:00.537Z,58.30
2019-03-10T15:10:30.913Z,58.60
2019-03-10T15:13:01.118Z,58.70
2019-03-10T15:15:30.752Z,58.70
2019-03-10T15:18:03.190Z,59.00
2019-03-10T15:20:32.759Z,59.10
2019-03-10T15:23:01.602Z,59.60
2019-03-10T15:25:35.729Z,59.70
2019-03-10T15:28:07.827Z,59.60
2019-03-10T15:30:39.527Z,59.40
2019-03-10T15:33:10.481Z,58.60
2019-03-10T15:35:46.030Z,57.50
2019-03-10T15:38:19.311Z,57.20
2019-03-10T15:40:56.408Z,56.40
2019-03-10T15:43:30.914Z,55.70
2019-03-10T15:46:05.995Z,55.10
2019-03-10T15:48:57.115Z,55.50
2019-03-10T15:51:31.535Z,55.10
2019-03-10T15:54:07.435Z,55.10
2019-03-10T15:56:40.892Z,55.70
2019-03-10T15:59:18.379Z,56.00
2019-03-10T16:01:52.696Z,56.40
2019-03-10T16:04:30.838Z,56.90
2019-03-10T16:07:01.070Z,57.00
2019-03-10T16:09:32.260Z,57.20
2019-03-10T16:12:03.078Z,57.70
2019-03-10T16:14:35.880Z,58.20
2019-03-10T16:17:06.069Z,58.50
2019-03-10T16:19:34.600Z,58.70
2019-03-10T16:22:03.246Z,58.90
2019-03-10T16:24:34.188Z,58.80
2019-03-10T16:27:14.231Z,58.60
2019-03-10T16:29:50.296Z,59.60
2019-03-10T16:32:23.682Z,59.90
2019-03-10T16:35:00.320Z,60.30
2019-03-10T16:37:32.175Z,60.40
2019-03-10T16:40:04.437Z,61.20
2019-03-10T16:42:43.145Z,61.70
2019-03-10T16:45:23.134Z,61.50
2019-03-10T16:47:54.403Z,62.10
2019-03-10T16:50:32.775Z,62.60
2019-03-10T16:53:04.480Z,62.90
2019-03-10T16:55:35.394Z,63.90
2019-03-10T16:58:12.120Z,64.80
2019-03-10T17:01:09.907Z,64.90
2019-03-10T17:03:55.929Z,65.10
2019-03-10T17:06:37.446Z,65.70
2019-03-10T17:09:19.867Z,66.60
2019-03-10T17:11:57.644Z,67.10
2019-03-10T17:14:31.834Z,67.40
2019-03-10T17:24:10.728Z,69.40
2019-03-10T17:29:31.604Z,72.20
2019-03-10T17:32:00.916Z,74.50
2019-03-10T17:34:30.876Z,75.50
2019-03-10T17:37:00.462Z,75.50
2019-03-10T17:39:29.108Z,76.90
2019-03-10T17:42:01.285Z,77.50
2019-03-10T17:44:40.711Z,79.20
2019-03-10T17:47:06.290Z,80.00
2019-03-10T17:49:41.719Z,79.10
2019-03-10T17:52:14.655Z,80.20
2019-03-10T17:54:44.238Z,79.70
2019-03-10T17:57:14.428Z,79.60
2019-03-10T17:59:45.616Z,79.20
2019-03-10T18:02:17.738Z,79.10
2019-03-10T18:04:46.313Z,79.60
2019-03-10T18:07:14.900Z,80.40
2019-03-10T18:09:43.686Z,80.50
2019-03-10T18:12:14.736Z,80.40
2019-03-10T18:14:43.834Z,82.10
2019-03-10T18:17:13.910Z,81.90
2019-03-10T18:19:44.761Z,83.00
2019-03-10T18:22:15.150Z,83.20
2019-03-10T18:24:43.727Z,83.70
2019-03-10T18:27:12.288Z,83.90
2019-03-10T18:29:42.250Z,83.60
2019-03-10T18:32:10.793Z,84.10
2019-03-10T18:34:39.354Z,84.50
2019-03-10T18:37:07.970Z,84.60
2019-03-10T18:39:36.760Z,85.40
2019-03-10T18:42:05.379Z,86.00
2019-03-10T18:44:33.956Z,86.80
2019-03-10T18:47:02.640Z,86.20
2019-03-10T18:49:31.278Z,86.30
2019-03-10T18:52:06.778Z,86.90
2019-03-10T18:54:35.356Z,87.50
2019-03-10T18:57:03.964Z,87.80
2019-03-10T18:59:32.581Z,87.90
2019-03-10T19:02:04.582Z,88.50
2019-03-10T19:04:33.108Z,89.00
2019-03-10T19:07:06.086Z,87.60
2019-03-10T19:09:34.672Z,86.80
2019-03-10T19:12:03.227Z,86.80
2019-03-10T19:14:40.452Z,87.50
2019-03-10T19:17:11.747Z,87.30
2019-03-10T19:19:41.797Z,87.00
2019-03-10T19:22:10.354Z,87.10
2019-03-10T19:24:39.516Z,87.50
2019-03-10T19:27:10.967Z,88.00
2019-03-10T19:29:41.084Z,88.20
2019-03-10T19:32:13.636Z,88.50
2019-03-10T19:34:44.606Z,88.70
2019-03-10T19:37:16.126Z,89.20
2019-03-10T19:39:52.542Z,89.60
2019-03-10T19:42:41.135Z,90.00
2019-03-10T19:45:34.165Z,90.00
2019-03-10T19:48:16.035Z,90.00
2019-03-10T19:50:53.170Z,90.00
2019-03-10T19:53:26.313Z,90.20
2019-03-10T19:55:59.852Z,90.40
2019-03-10T19:58:50.246Z,90.50
2019-03-10T20:01:19.750Z,90.60
2019-03-10T20:03:53.471Z,90.70
2019-03-10T20:06:24.323Z,91.10
2019-03-10T20:09:02.034Z,91.30
2019-03-10T20:11:30.582Z,91.40
2019-03-10T20:14:01.868Z,91.40
2019-03-10T20:16:31.456Z,91.50
2019-03-10T20:19:00.253Z,91.40
2019-03-10T20:21:33.220Z,91.40
2019-03-10T20:24:06.584Z,91.30
2019-03-10T20:26:55.702Z,91.50
2019-03-10T20:29:42.687Z,91.70
2019-03-10T20:32:18.546Z,92.10
2019-03-10T20:34:50.687Z,92.10
2019-03-10T20:37:28.288Z,92.00
2019-03-10T20:39:57.667Z,91.90
2019-03-10T20:42:35.120Z,91.70
2019-03-10T20:45:01.429Z,91.70
2019-03-10T20:47:29.989Z,91.70
2019-03-10T20:50:06.342Z,91.70
2019-03-10T20:52:40.584Z,91.70
2019-03-10T20:55:25.571Z,91.70
2019-03-10T20:57:58.545Z,91.60
2019-03-10T21:04:14.605Z,91.60
2019-03-10T21:06:59.654Z,91.70
2019-03-10T21:09:40.216Z,91.80
2019-03-10T21:15:11.302Z,92.10
2019-03-10T21:21:12.295Z,92.60
2019-03-10T21:23:41.659Z,92.90
2019-03-10T21:26:13.545Z,93.00
2019-03-10T21:28:44.862Z,93.20
2019-03-10T21:31:13.439Z,93.20
2019-03-10T21:33:46.388Z,93.30
2019-03-10T21:36:22.508Z,93.50
2019-03-10T21:38:56.788Z,93.60
2019-03-10T21:41:25.364Z,93.80
2019-03-10T21:44:00.500Z,93.80
2019-03-10T21:46:30.671Z,93.70
2019-03-10T21:49:05.270Z,93.70
2019-03-10T21:51:41.941Z,93.60
2019-03-10T21:54:15.630Z,93.70
2019-03-10T21:57:00.828Z,93.90
2019-03-10T21:59:25.217Z,93.90
2019-03-10T22:05:05.668Z,93.90
2019-03-10T22:07:43.303Z,94.10
2019-03-10T22:10:27.626Z,94.20
2019-03-10T22:12:54.874Z,94.10
2019-03-10T22:15:40.728Z,94.20
2019-03-10T22:18:11.706Z,94.30
2019-03-10T22:20:50.895Z,94.20
2019-03-10T22:23:27.623Z,94.20
2019-03-10T22:25:58.912Z,94.30
2019-03-10T22:28:28.895Z,94.20
2019-03-10T22:31:05.841Z,94.40
2019-03-10T22:36:50.427Z,94.50
2019-03-10T22:42:23.597Z,94.50
2019-03-10T22:47:43.986Z,94.80
2019-03-10T22:50:20.064Z,94.80
2019-03-10T22:59:07.259Z,94.90
2019-03-10T23:04:39.418Z,94.50
2019-03-10T23:07:11.649Z,94.40
2019-03-10T23:09:53.952Z,94.50
2019-03-10T23:12:27.774Z,94.40
2019-03-10T23:15:01.890Z,94.40
2019-03-10T23:17:52.024Z,94.50
2019-03-10T23:20:51.105Z,94.60
2019-03-10T23:23:56.496Z,94.60
2019-03-10T23:26:41.537Z,94.40
2019-03-10T23:29:27.086Z,95.50
2019-03-10T23:32:09.008Z,95.90
2019-03-10T23:41:17.181Z,95.10
2019-03-10T23:44:05.559Z,94.90
2019-03-10T23:52:31.873Z,95.00
2019-03-10T23:55:02.501Z,95.00
2019-03-10T23:57:40.988Z,95.30
